sensor_id;sensor_type;location;lat;lon;timestamp;P1;durP1;ratioP1;P2;durP2;ratioP2
12968;SDS011;6549;53.128;8.182;2024-02-28T00:02:23;38.30;;;14.20;;
12968;SDS011;6549;53.128;8.182;2024-02-28T00:05:23;34.55;;;14.73;;
12968;SDS011;6549;53.128;8.182;2024-02-28T00:08:24;35.67;;;14.70;;
12968;SDS011;6549;53.128;8.182;2024-02-28T00:11:24;34.83;;;14.40;;
12968;SDS011;6549;53.128;8.182;2024-02-28T00:14:24;31.88;;;13.15;;
12968;SDS011;6549;53.128;8.182;2024-02-28T00:17:25;38.58;;;14.57;;
12968;SDS011;6549;53.128;8.182;2024-02-28T00:20:25;32.83;;;14.68;;
12968;SDS011;6549;53.128;8.182;2024-02-28T00:23:27;35.33;;;14.13;;
12968;SDS011;6549;53.128;8.182;2024-02-28T00:26:27;33.25;;;14.52;;
12968;SDS011;6549;53.128;8.182;2024-02-28T00:29:27;40.40;;;16.23;;
12968;SDS011;6549;53.128;8.182;2024-02-28T00:32:28;35.50;;;15.50;;
12968;SDS011;6549;53.128;8.182;2024-02-28T00:35:32;37.97;;;15.20;;
12968;SDS011;6549;53.128;8.182;2024-02-28T00:38:33;37.40;;;14.45;;
12968;SDS011;6549;53.128;8.182;2024-02-28T00:41:33;39.05;;;15.35;;
12968;SDS011;6549;53.128;8.182;2024-02-28T00:44:34;41.40;;;16.08;;
12968;SDS011;6549;53.128;8.182;2024-02-28T00:47:34;33.00;;;14.40;;
12968;SDS011;6549;53.128;8.182;2024-02-28T00:50:35;42.28;;;16.02;;
12968;SDS011;6549;53.128;8.182;2024-02-28T00:53:35;37.15;;;14.43;;
12968;SDS011;6549;53.128;8.182;2024-02-28T00:56:36;34.90;;;14.25;;
12968;SDS011;6549;53.128;8.182;2024-02-28T00:59:36;38.70;;;15.48;;
12968;SDS011;6549;53.128;8.182;2024-02-28T01:02:36;41.35;;;15.95;;
12968;SDS011;6549;53.128;8.182;2024-02-28T01:05:37;37.40;;;15.25;;
12968;SDS011;6549;53.128;8.182;2024-02-28T01:08:37;39.53;;;15.05;;
12968;SDS011;6549;53.128;8.182;2024-02-28T01:11:38;37.30;;;14.25;;
12968;SDS011;6549;53.128;8.182;2024-02-28T01:14:38;39.33;;;14.63;;
12968;SDS011;6549;53.128;8.182;2024-02-28T01:17:38;36.72;;;14.15;;
12968;SDS011;6549;53.128;8.182;2024-02-28T01:20:39;37.97;;;15.27;;
12968;SDS011;6549;53.128;8.182;2024-02-28T01:23:39;37.00;;;15.15;;
12968;SDS011;6549;53.128;8.182;2024-02-28T01:26:39;38.55;;;15.90;;
12968;SDS011;6549;53.128;8.182;2024-02-28T01:29:40;42.10;;;16.95;;
12968;SDS011;6549;53.128;8.182;2024-02-28T01:32:40;41.90;;;16.08;;
12968;SDS011;6549;53.128;8.182;2024-02-28T01:35:41;41.75;;;16.23;;
12968;SDS011;6549;53.128;8.182;2024-02-28T01:38:41;41.03;;;15.02;;
12968;SDS011;6549;53.128;8.182;2024-02-28T01:41:41;42.70;;;16.55;;
12968;SDS011;6549;53.128;8.182;2024-02-28T01:44:51;41.15;;;16.75;;
12968;SDS011;6549;53.128;8.182;2024-02-28T01:47:51;43.35;;;17.00;;
12968;SDS011;6549;53.128;8.182;2024-02-28T01:50:51;47.10;;;18.08;;
12968;SDS011;6549;53.128;8.182;2024-02-28T01:53:52;42.25;;;16.67;;
12968;SDS011;6549;53.128;8.182;2024-02-28T01:56:53;45.33;;;16.65;;
12968;SDS011;6549;53.128;8.182;2024-02-28T01:59:54;45.40;;;16.77;;
12968;SDS011;6549;53.128;8.182;2024-02-28T02:02:55;47.72;;;18.42;;
12968;SDS011;6549;53.128;8.182;2024-02-28T02:05:56;51.35;;;17.85;;
12968;SDS011;6549;53.128;8.182;2024-02-28T02:08:56;50.45;;;19.40;;
12968;SDS011;6549;53.128;8.182;2024-02-28T02:11:57;54.67;;;19.65;;
12968;SDS011;6549;53.128;8.182;2024-02-28T02:14:57;52.85;;;19.08;;
12968;SDS011;6549;53.128;8.182;2024-02-28T02:17:57;52.50;;;18.92;;
12968;SDS011;6549;53.128;8.182;2024-02-28T02:21:02;55.78;;;20.52;;
12968;SDS011;6549;53.128;8.182;2024-02-28T02:24:05;59.03;;;20.08;;
12968;SDS011;6549;53.128;8.182;2024-02-28T02:27:05;57.05;;;20.38;;
12968;SDS011;6549;53.128;8.182;2024-02-28T02:30:06;52.75;;;19.42;;
12968;SDS011;6549;53.128;8.182;2024-02-28T02:33:07;55.58;;;19.73;;
12968;SDS011;6549;53.128;8.182;2024-02-28T02:36:07;52.38;;;19.25;;
12968;SDS011;6549;53.128;8.182;2024-02-28T02:39:07;51.35;;;18.60;;
12968;SDS011;6549;53.128;8.182;2024-02-28T02:42:08;52.50;;;18.67;;
12968;SDS011;6549;53.128;8.182;2024-02-28T02:45:08;50.20;;;18.35;;
12968;SDS011;6549;53.128;8.182;2024-02-28T02:48:09;52.60;;;18.52;;
12968;SDS011;6549;53.128;8.182;2024-02-28T02:51:10;48.47;;;19.65;;
12968;SDS011;6549;53.128;8.182;2024-02-28T02:54:10;49.80;;;20.00;;
12968;SDS011;6549;53.128;8.182;2024-02-28T02:57:11;48.45;;;18.40;;
12968;SDS011;6549;53.128;8.182;2024-02-28T03:00:11;48.40;;;18.50;;
12968;SDS011;6549;53.128;8.182;2024-02-28T03:03:12;51.03;;;19.05;;
12968;SDS011;6549;53.128;8.182;2024-02-28T03:06:12;48.08;;;19.38;;
12968;SDS011;6549;53.128;8.182;2024-02-28T03:09:12;50.33;;;19.38;;
12968;SDS011;6549;53.128;8.182;2024-02-28T03:12:13;50.55;;;19.17;;
12968;SDS011;6549;53.128;8.182;2024-02-28T03:15:13;47.33;;;18.23;;
12968;SDS011;6549;53.128;8.182;2024-02-28T03:18:13;50.05;;;18.08;;
12968;SDS011;6549;53.128;8.182;2024-02-28T03:21:14;46.25;;;17.33;;
12968;SDS011;6549;53.128;8.182;2024-02-28T03:24:14;41.08;;;16.83;;
12968;SDS011;6549;53.128;8.182;2024-02-28T03:27:15;46.08;;;17.75;;
12968;SDS011;6549;53.128;8.182;2024-02-28T03:30:15;41.08;;;17.27;;
12968;SDS011;6549;53.128;8.182;2024-02-28T03:33:15;46.25;;;17.38;;
12968;SDS011;6549;53.128;8.182;2024-02-28T03:36:16;41.22;;;17.25;;
12968;SDS011;6549;53.128;8.182;2024-02-28T03:39:16;44.13;;;16.83;;
12968;SDS011;6549;53.128;8.182;2024-02-28T03:42:17;40.38;;;16.17;;
12968;SDS011;6549;53.128;8.182;2024-02-28T03:45:17;41.22;;;15.50;;
12968;SDS011;6549;53.128;8.182;2024-02-28T03:48:19;42.97;;;17.10;;
12968;SDS011;6549;53.128;8.182;2024-02-28T03:51:20;37.83;;;16.02;;
12968;SDS011;6549;53.128;8.182;2024-02-28T03:54:20;44.08;;;17.23;;
12968;SDS011;6549;53.128;8.182;2024-02-28T03:57:20;41.33;;;16.38;;
12968;SDS011;6549;53.128;8.182;2024-02-28T04:00:21;45.80;;;16.85;;
12968;SDS011;6549;53.128;8.182;2024-02-28T04:03:21;44.30;;;16.58;;
12968;SDS011;6549;53.128;8.182;2024-02-28T04:06:21;47.20;;;16.48;;
12968;SDS011;6549;53.128;8.182;2024-02-28T04:09:22;44.00;;;16.52;;
12968;SDS011;6549;53.128;8.182;2024-02-28T04:12:22;37.55;;;16.02;;
12968;SDS011;6549;53.128;8.182;2024-02-28T04:15:22;44.85;;;16.63;;
12968;SDS011;6549;53.128;8.182;2024-02-28T04:18:25;43.05;;;14.95;;
12968;SDS011;6549;53.128;8.182;2024-02-28T04:21:26;48.08;;;16.88;;
12968;SDS011;6549;53.128;8.182;2024-02-28T04:24:26;45.72;;;16.70;;
12968;SDS011;6549;53.128;8.182;2024-02-28T04:27:26;48.42;;;17.05;;
12968;SDS011;6549;53.128;8.182;2024-02-28T04:30:27;45.42;;;15.95;;
12968;SDS011;6549;53.128;8.182;2024-02-28T04:33:27;51.47;;;16.95;;
12968;SDS011;6549;53.128;8.182;2024-02-28T04:36:27;46.72;;;17.60;;
12968;SDS011;6549;53.128;8.182;2024-02-28T04:39:28;47.42;;;18.77;;
12968;SDS011;6549;53.128;8.182;2024-02-28T04:42:28;51.88;;;19.02;;
12968;SDS011;6549;53.128;8.182;2024-02-28T04:45:28;55.15;;;18.60;;
12968;SDS011;6549;53.128;8.182;2024-02-28T04:48:29;49.13;;;18.17;;
12968;SDS011;6549;53.128;8.182;2024-02-28T04:51:29;58.60;;;19.70;;
12968;SDS011;6549;53.128;8.182;2024-02-28T04:54:29;51.55;;;16.88;;
12968;SDS011;6549;53.128;8.182;2024-02-28T04:57:30;53.58;;;17.73;;
12968;SDS011;6549;53.128;8.182;2024-02-28T05:00:30;45.55;;;16.10;;
12968;SDS011;6549;53.128;8.182;2024-02-28T05:03:30;63.85;;;19.20;;
12968;SDS011;6549;53.128;8.182;2024-02-28T05:06:31;52.17;;;17.90;;
12968;SDS011;6549;53.128;8.182;2024-02-28T05:09:31;55.20;;;18.67;;
12968;SDS011;6549;53.128;8.182;2024-02-28T05:12:31;54.15;;;18.90;;
12968;SDS011;6549;53.128;8.182;2024-02-28T05:15:32;53.28;;;17.17;;
12968;SDS011;6549;53.128;8.182;2024-02-28T05:18:32;65.95;;;20.35;;
12968;SDS011;6549;53.128;8.182;2024-02-28T05:21:39;53.65;;;17.85;;
12968;SDS011;6549;53.128;8.182;2024-02-28T05:24:41;57.58;;;18.63;;
12968;SDS011;6549;53.128;8.182;2024-02-28T05:27:43;64.43;;;19.40;;
12968;SDS011;6549;53.128;8.182;2024-02-28T05:30:43;59.78;;;19.35;;
12968;SDS011;6549;53.128;8.182;2024-02-28T05:33:44;58.10;;;18.30;;
12968;SDS011;6549;53.128;8.182;2024-02-28T05:36:44;55.85;;;19.27;;
12968;SDS011;6549;53.128;8.182;2024-02-28T05:39:44;55.55;;;18.23;;
12968;SDS011;6549;53.128;8.182;2024-02-28T05:42:45;52.13;;;17.83;;
12968;SDS011;6549;53.128;8.182;2024-02-28T05:45:45;55.25;;;19.83;;
12968;SDS011;6549;53.128;8.182;2024-02-28T05:48:45;62.60;;;18.83;;
12968;SDS011;6549;53.128;8.182;2024-02-28T05:51:46;57.80;;;20.23;;
12968;SDS011;6549;53.128;8.182;2024-02-28T05:54:47;51.88;;;18.30;;
12968;SDS011;6549;53.128;8.182;2024-02-28T05:57:48;59.28;;;18.85;;
12968;SDS011;6549;53.128;8.182;2024-02-28T06:00:48;59.90;;;19.35;;
12968;SDS011;6549;53.128;8.182;2024-02-28T06:03:49;58.03;;;20.30;;
12968;SDS011;6549;53.128;8.182;2024-02-28T06:06:50;53.50;;;19.98;;
12968;SDS011;6549;53.128;8.182;2024-02-28T06:09:51;58.90;;;18.83;;
12968;SDS011;6549;53.128;8.182;2024-02-28T06:12:51;55.08;;;18.23;;
12968;SDS011;6549;53.128;8.182;2024-02-28T06:15:52;58.53;;;18.88;;
12968;SDS011;6549;53.128;8.182;2024-02-28T06:18:52;56.70;;;18.60;;
12968;SDS011;6549;53.128;8.182;2024-02-28T06:21:52;63.85;;;19.90;;
12968;SDS011;6549;53.128;8.182;2024-02-28T06:24:53;59.10;;;20.20;;
12968;SDS011;6549;53.128;8.182;2024-02-28T06:27:53;53.42;;;17.95;;
12968;SDS011;6549;53.128;8.182;2024-02-28T06:30:53;60.42;;;19.90;;
12968;SDS011;6549;53.128;8.182;2024-02-28T06:33:54;56.03;;;19.23;;
12968;SDS011;6549;53.128;8.182;2024-02-28T06:36:54;52.38;;;18.20;;
12968;SDS011;6549;53.128;8.182;2024-02-28T06:39:55;58.70;;;18.70;;
12968;SDS011;6549;53.128;8.182;2024-02-28T06:42:55;56.00;;;19.48;;
12968;SDS011;6549;53.128;8.182;2024-02-28T06:45:55;61.17;;;19.17;;
12968;SDS011;6549;53.128;8.182;2024-02-28T06:48:56;53.13;;;19.98;;
12968;SDS011;6549;53.128;8.182;2024-02-28T06:51:56;55.30;;;19.00;;
12968;SDS011;6549;53.128;8.182;2024-02-28T06:54:59;63.60;;;20.83;;
12968;SDS011;6549;53.128;8.182;2024-02-28T06:58:00;58.85;;;19.83;;
12968;SDS011;6549;53.128;8.182;2024-02-28T07:01:01;60.78;;;19.45;;
12968;SDS011;6549;53.128;8.182;2024-02-28T07:04:01;57.17;;;19.13;;
12968;SDS011;6549;53.128;8.182;2024-02-28T07:07:02;58.92;;;20.33;;
12968;SDS011;6549;53.128;8.182;2024-02-28T07:10:02;60.72;;;19.73;;
12968;SDS011;6549;53.128;8.182;2024-02-28T07:13:04;57.17;;;20.30;;
12968;SDS011;6549;53.128;8.182;2024-02-28T07:16:04;58.60;;;20.20;;
12968;SDS011;6549;53.128;8.182;2024-02-28T07:19:06;55.75;;;18.90;;
12968;SDS011;6549;53.128;8.182;2024-02-28T07:22:06;55.58;;;19.08;;
12968;SDS011;6549;53.128;8.182;2024-02-28T07:25:07;51.80;;;18.88;;
12968;SDS011;6549;53.128;8.182;2024-02-28T07:28:08;54.75;;;18.42;;
12968;SDS011;6549;53.128;8.182;2024-02-28T07:31:14;51.50;;;18.85;;
12968;SDS011;6549;53.128;8.182;2024-02-28T07:34:15;55.63;;;19.15;;
12968;SDS011;6549;53.128;8.182;2024-02-28T07:37:16;55.75;;;19.77;;
12968;SDS011;6549;53.128;8.182;2024-02-28T07:40:16;56.78;;;19.92;;
12968;SDS011;6549;53.128;8.182;2024-02-28T07:43:17;55.83;;;19.45;;
12968;SDS011;6549;53.128;8.182;2024-02-28T07:46:17;52.63;;;18.38;;
12968;SDS011;6549;53.128;8.182;2024-02-28T07:49:17;50.63;;;18.00;;
12968;SDS011;6549;53.128;8.182;2024-02-28T07:52:18;57.53;;;18.80;;
12968;SDS011;6549;53.128;8.182;2024-02-28T07:55:19;48.78;;;17.80;;
12968;SDS011;6549;53.128;8.182;2024-02-28T08:01:22;46.85;;;18.13;;
12968;SDS011;6549;53.128;8.182;2024-02-28T08:04:22;51.90;;;18.67;;
12968;SDS011;6549;53.128;8.182;2024-02-28T08:07:23;50.95;;;18.17;;
12968;SDS011;6549;53.128;8.182;2024-02-28T08:10:23;54.60;;;19.20;;
12968;SDS011;6549;53.128;8.182;2024-02-28T08:13:24;45.30;;;17.50;;
12968;SDS011;6549;53.128;8.182;2024-02-28T08:16:26;44.67;;;18.27;;
12968;SDS011;6549;53.128;8.182;2024-02-28T08:19:27;48.40;;;17.45;;
12968;SDS011;6549;53.128;8.182;2024-02-28T08:22:27;51.72;;;18.08;;
12968;SDS011;6549;53.128;8.182;2024-02-28T08:25:27;49.97;;;18.45;;
12968;SDS011;6549;53.128;8.182;2024-02-28T08:28:28;49.42;;;19.13;;
12968;SDS011;6549;53.128;8.182;2024-02-28T08:31:28;52.33;;;19.10;;
12968;SDS011;6549;53.128;8.182;2024-02-28T08:34:28;45.25;;;17.88;;
12968;SDS011;6549;53.128;8.182;2024-02-28T08:37:29;48.92;;;18.42;;
12968;SDS011;6549;53.128;8.182;2024-02-28T08:40:29;44.45;;;17.23;;
12968;SDS011;6549;53.128;8.182;2024-02-28T08:43:30;46.28;;;17.48;;
12968;SDS011;6549;53.128;8.182;2024-02-28T08:46:30;47.47;;;17.17;;
12968;SDS011;6549;53.128;8.182;2024-02-28T08:49:31;47.55;;;17.08;;
12968;SDS011;6549;53.128;8.182;2024-02-28T08:52:31;44.85;;;18.00;;
12968;SDS011;6549;53.128;8.182;2024-02-28T08:55:31;46.13;;;17.45;;
12968;SDS011;6549;53.128;8.182;2024-02-28T08:58:32;44.28;;;17.80;;
12968;SDS011;6549;53.128;8.182;2024-02-28T09:01:32;49.80;;;19.15;;
12968;SDS011;6549;53.128;8.182;2024-02-28T09:04:34;47.33;;;19.15;;
12968;SDS011;6549;53.128;8.182;2024-02-28T09:07:34;45.75;;;17.40;;
12968;SDS011;6549;53.128;8.182;2024-02-28T09:10:35;44.85;;;17.65;;
12968;SDS011;6549;53.128;8.182;2024-02-28T09:13:35;46.58;;;19.23;;
12968;SDS011;6549;53.128;8.182;2024-02-28T09:16:36;44.58;;;18.10;;
12968;SDS011;6549;53.128;8.182;2024-02-28T09:19:36;47.17;;;18.52;;
12968;SDS011;6549;53.128;8.182;2024-02-28T09:22:37;47.10;;;17.98;;
12968;SDS011;6549;53.128;8.182;2024-02-28T09:25:38;44.88;;;17.27;;
12968;SDS011;6549;53.128;8.182;2024-02-28T09:28:38;46.80;;;19.23;;
12968;SDS011;6549;53.128;8.182;2024-02-28T09:31:38;45.03;;;19.25;;
12968;SDS011;6549;53.128;8.182;2024-02-28T09:34:39;44.88;;;18.15;;
12968;SDS011;6549;53.128;8.182;2024-02-28T09:37:39;46.95;;;18.98;;
12968;SDS011;6549;53.128;8.182;2024-02-28T09:40:39;44.70;;;18.58;;
12968;SDS011;6549;53.128;8.182;2024-02-28T09:43:40;43.45;;;18.17;;
12968;SDS011;6549;53.128;8.182;2024-02-28T09:46:41;44.43;;;18.17;;
12968;SDS011;6549;53.128;8.182;2024-02-28T09:49:42;40.17;;;17.70;;
12968;SDS011;6549;53.128;8.182;2024-02-28T09:52:43;43.60;;;17.95;;
12968;SDS011;6549;53.128;8.182;2024-02-28T09:55:43;41.53;;;18.33;;
12968;SDS011;6549;53.128;8.182;2024-02-28T09:58:44;42.35;;;17.92;;
12968;SDS011;6549;53.128;8.182;2024-02-28T10:01:47;40.17;;;17.77;;
12968;SDS011;6549;53.128;8.182;2024-02-28T10:04:53;43.97;;;18.38;;
12968;SDS011;6549;53.128;8.182;2024-02-28T10:07:55;40.45;;;18.42;;
12968;SDS011;6549;53.128;8.182;2024-02-28T10:10:56;42.72;;;16.70;;
12968;SDS011;6549;53.128;8.182;2024-02-28T10:13:58;44.33;;;18.90;;
12968;SDS011;6549;53.128;8.182;2024-02-28T10:16:59;39.80;;;16.95;;
12968;SDS011;6549;53.128;8.182;2024-02-28T10:19:59;41.67;;;17.63;;
12968;SDS011;6549;53.128;8.182;2024-02-28T10:23:03;41.42;;;16.75;;
12968;SDS011;6549;53.128;8.182;2024-02-28T10:26:08;38.50;;;16.98;;
12968;SDS011;6549;53.128;8.182;2024-02-28T10:29:09;41.25;;;16.77;;
12968;SDS011;6549;53.128;8.182;2024-02-28T10:32:09;43.22;;;17.33;;
12968;SDS011;6549;53.128;8.182;2024-02-28T10:35:10;42.03;;;17.23;;
12968;SDS011;6549;53.128;8.182;2024-02-28T10:38:12;44.67;;;16.60;;
12968;SDS011;6549;53.128;8.182;2024-02-28T10:41:13;45.83;;;17.48;;
12968;SDS011;6549;53.128;8.182;2024-02-28T10:44:15;45.07;;;16.93;;
12968;SDS011;6549;53.128;8.182;2024-02-28T10:47:16;38.25;;;16.92;;
12968;SDS011;6549;53.128;8.182;2024-02-28T10:50:17;46.35;;;17.67;;
12968;SDS011;6549;53.128;8.182;2024-02-28T10:53:19;45.63;;;17.63;;
12968;SDS011;6549;53.128;8.182;2024-02-28T10:56:26;43.20;;;17.65;;
12968;SDS011;6549;53.128;8.182;2024-02-28T10:59:28;42.28;;;16.95;;
12968;SDS011;6549;53.128;8.182;2024-02-28T11:02:31;43.80;;;16.38;;
12968;SDS011;6549;53.128;8.182;2024-02-28T11:05:35;41.55;;;16.40;;
12968;SDS011;6549;53.128;8.182;2024-02-28T11:08:40;43.50;;;16.30;;
12968;SDS011;6549;53.128;8.182;2024-02-28T11:11:40;43.08;;;16.52;;
12968;SDS011;6549;53.128;8.182;2024-02-28T11:14:41;43.78;;;16.08;;
12968;SDS011;6549;53.128;8.182;2024-02-28T11:17:41;43.92;;;17.35;;
12968;SDS011;6549;53.128;8.182;2024-02-28T11:20:41;44.35;;;16.92;;
12968;SDS011;6549;53.128;8.182;2024-02-28T11:23:46;42.00;;;16.03;;
12968;SDS011;6549;53.128;8.182;2024-02-28T11:26:48;45.15;;;16.02;;
12968;SDS011;6549;53.128;8.182;2024-02-28T11:29:48;41.85;;;15.50;;
12968;SDS011;6549;53.128;8.182;2024-02-28T11:32:51;50.90;;;17.27;;
12968;SDS011;6549;53.128;8.182;2024-02-28T11:35:54;39.65;;;16.75;;
12968;SDS011;6549;53.128;8.182;2024-02-28T11:38:57;44.00;;;17.27;;
12968;SDS011;6549;53.128;8.182;2024-02-28T11:42:11;47.95;;;18.33;;
12968;SDS011;6549;53.128;8.182;2024-02-28T11:45:15;45.47;;;17.85;;
12968;SDS011;6549;53.128;8.182;2024-02-28T11:48:16;42.00;;;17.75;;
12968;SDS011;6549;53.128;8.182;2024-02-28T11:51:16;41.25;;;17.58;;
12968;SDS011;6549;53.128;8.182;2024-02-28T11:54:17;44.60;;;18.15;;
12968;SDS011;6549;53.128;8.182;2024-02-28T11:57:17;44.17;;;17.80;;
12968;SDS011;6549;53.128;8.182;2024-02-28T12:00:17;44.60;;;17.52;;
12968;SDS011;6549;53.128;8.182;2024-02-28T12:03:21;40.67;;;17.52;;
12968;SDS011;6549;53.128;8.182;2024-02-28T12:06:25;42.40;;;17.45;;
12968;SDS011;6549;53.128;8.182;2024-02-28T12:09:26;42.63;;;19.27;;
12968;SDS011;6549;53.128;8.182;2024-02-28T12:12:28;40.17;;;17.83;;
12968;SDS011;6549;53.128;8.182;2024-02-28T12:15:29;40.53;;;17.55;;
12968;SDS011;6549;53.128;8.182;2024-02-28T12:18:29;40.95;;;17.58;;
12968;SDS011;6549;53.128;8.182;2024-02-28T12:21:30;39.55;;;17.95;;
12968;SDS011;6549;53.128;8.182;2024-02-28T12:24:30;41.78;;;16.98;;
12968;SDS011;6549;53.128;8.182;2024-02-28T12:27:30;41.28;;;16.73;;
12968;SDS011;6549;53.128;8.182;2024-02-28T12:30:31;38.17;;;16.20;;
12968;SDS011;6549;53.128;8.182;2024-02-28T12:33:31;36.17;;;16.15;;
12968;SDS011;6549;53.128;8.182;2024-02-28T12:36:32;35.78;;;16.15;;
12968;SDS011;6549;53.128;8.182;2024-02-28T12:39:33;38.90;;;16.40;;
12968;SDS011;6549;53.128;8.182;2024-02-28T12:42:34;39.40;;;17.55;;
12968;SDS011;6549;53.128;8.182;2024-02-28T12:45:34;39.10;;;17.60;;
12968;SDS011;6549;53.128;8.182;2024-02-28T12:48:38;39.30;;;17.55;;
12968;SDS011;6549;53.128;8.182;2024-02-28T12:54:44;42.85;;;18.55;;
12968;SDS011;6549;53.128;8.182;2024-02-28T12:57:44;37.10;;;18.98;;
12968;SDS011;6549;53.128;8.182;2024-02-28T13:00:45;41.92;;;18.98;;
12968;SDS011;6549;53.128;8.182;2024-02-28T13:03:45;37.75;;;18.92;;
12968;SDS011;6549;53.128;8.182;2024-02-28T13:06:45;40.15;;;19.25;;
12968;SDS011;6549;53.128;8.182;2024-02-28T13:09:46;35.88;;;17.52;;
12968;SDS011;6549;53.128;8.182;2024-02-28T13:12:46;39.83;;;18.58;;
12968;SDS011;6549;53.128;8.182;2024-02-28T13:15:46;35.67;;;18.20;;
12968;SDS011;6549;53.128;8.182;2024-02-28T13:18:47;37.45;;;18.83;;
12968;SDS011;6549;53.128;8.182;2024-02-28T13:21:47;38.88;;;18.50;;
12968;SDS011;6549;53.128;8.182;2024-02-28T13:24:47;33.10;;;18.35;;
12968;SDS011;6549;53.128;8.182;2024-02-28T13:27:48;36.92;;;18.60;;
12968;SDS011;6549;53.128;8.182;2024-02-28T13:30:48;33.00;;;17.40;;
12968;SDS011;6549;53.128;8.182;2024-02-28T13:33:49;37.95;;;18.65;;
12968;SDS011;6549;53.128;8.182;2024-02-28T13:36:49;32.55;;;17.35;;
12968;SDS011;6549;53.128;8.182;2024-02-28T13:39:50;36.13;;;18.35;;
12968;SDS011;6549;53.128;8.182;2024-02-28T13:42:52;34.38;;;18.85;;
12968;SDS011;6549;53.128;8.182;2024-02-28T13:45:52;36.33;;;17.20;;
12968;SDS011;6549;53.128;8.182;2024-02-28T13:48:55;34.55;;;18.25;;
12968;SDS011;6549;53.128;8.182;2024-02-28T13:51:55;34.38;;;17.70;;
12968;SDS011;6549;53.128;8.182;2024-02-28T13:54:55;32.75;;;16.85;;
12968;SDS011;6549;53.128;8.182;2024-02-28T13:57:56;32.42;;;17.98;;
12968;SDS011;6549;53.128;8.182;2024-02-28T14:00:57;31.30;;;17.17;;
12968;SDS011;6549;53.128;8.182;2024-02-28T14:03:58;34.50;;;17.17;;
12968;SDS011;6549;53.128;8.182;2024-02-28T14:06:58;34.65;;;17.27;;
12968;SDS011;6549;53.128;8.182;2024-02-28T14:09:58;36.53;;;17.70;;
12968;SDS011;6549;53.128;8.182;2024-02-28T14:12:59;30.48;;;16.77;;
12968;SDS011;6549;53.128;8.182;2024-02-28T14:16:00;35.25;;;17.83;;
12968;SDS011;6549;53.128;8.182;2024-02-28T14:19:01;31.05;;;15.55;;
12968;SDS011;6549;53.128;8.182;2024-02-28T14:22:03;32.80;;;16.02;;
12968;SDS011;6549;53.128;8.182;2024-02-28T14:25:04;31.83;;;16.75;;
12968;SDS011;6549;53.128;8.182;2024-02-28T14:28:04;30.40;;;16.58;;
12968;SDS011;6549;53.128;8.182;2024-02-28T14:31:05;29.98;;;16.42;;
12968;SDS011;6549;53.128;8.182;2024-02-28T14:34:05;33.55;;;16.88;;
12968;SDS011;6549;53.128;8.182;2024-02-28T14:37:06;31.42;;;16.55;;
12968;SDS011;6549;53.128;8.182;2024-02-28T14:40:06;31.02;;;16.65;;
12968;SDS011;6549;53.128;8.182;2024-02-28T14:43:11;33.58;;;17.95;;
12968;SDS011;6549;53.128;8.182;2024-02-28T14:46:11;34.42;;;18.70;;
12968;SDS011;6549;53.128;8.182;2024-02-28T14:49:11;32.13;;;17.17;;
12968;SDS011;6549;53.128;8.182;2024-02-28T14:52:12;30.40;;;16.70;;
12968;SDS011;6549;53.128;8.182;2024-02-28T14:55:13;30.73;;;16.77;;
12968;SDS011;6549;53.128;8.182;2024-02-28T14:58:14;33.55;;;17.48;;
12968;SDS011;6549;53.128;8.182;2024-02-28T15:01:14;31.60;;;17.40;;
12968;SDS011;6549;53.128;8.182;2024-02-28T15:04:14;31.40;;;17.70;;
12968;SDS011;6549;53.128;8.182;2024-02-28T15:07:15;31.25;;;17.35;;
12968;SDS011;6549;53.128;8.182;2024-02-28T15:10:16;30.77;;;17.83;;
12968;SDS011;6549;53.128;8.182;2024-02-28T15:13:16;33.22;;;16.95;;
12968;SDS011;6549;53.128;8.182;2024-02-28T15:16:17;31.40;;;17.98;;
12968;SDS011;6549;53.128;8.182;2024-02-28T15:19:20;31.48;;;17.73;;
12968;SDS011;6549;53.128;8.182;2024-02-28T15:22:20;32.65;;;18.05;;
12968;SDS011;6549;53.128;8.182;2024-02-28T15:25:21;34.42;;;18.88;;
12968;SDS011;6549;53.128;8.182;2024-02-28T15:28:21;34.30;;;18.98;;
12968;SDS011;6549;53.128;8.182;2024-02-28T15:31:23;34.33;;;19.50;;
12968;SDS011;6549;53.128;8.182;2024-02-28T15:34:23;36.38;;;19.02;;
12968;SDS011;6549;53.128;8.182;2024-02-28T15:37:24;37.45;;;19.90;;
12968;SDS011;6549;53.128;8.182;2024-02-28T15:40:25;40.08;;;22.77;;
12968;SDS011;6549;53.128;8.182;2024-02-28T15:43:25;37.25;;;20.50;;
12968;SDS011;6549;53.128;8.182;2024-02-28T15:46:30;46.17;;;22.58;;
12968;SDS011;6549;53.128;8.182;2024-02-28T15:49:30;39.88;;;20.85;;
12968;SDS011;6549;53.128;8.182;2024-02-28T15:52:30;37.40;;;21.08;;
12968;SDS011;6549;53.128;8.182;2024-02-28T15:55:31;36.33;;;20.63;;
12968;SDS011;6549;53.128;8.182;2024-02-28T15:58:32;41.05;;;21.67;;
12968;SDS011;6549;53.128;8.182;2024-02-28T16:01:33;44.10;;;23.02;;
12968;SDS011;6549;53.128;8.182;2024-02-28T16:04:34;43.20;;;22.38;;
12968;SDS011;6549;53.128;8.182;2024-02-28T16:07:34;43.33;;;22.33;;
12968;SDS011;6549;53.128;8.182;2024-02-28T16:10:35;38.33;;;20.92;;
12968;SDS011;6549;53.128;8.182;2024-02-28T16:13:35;40.42;;;21.55;;
12968;SDS011;6549;53.128;8.182;2024-02-28T16:16:36;49.60;;;23.35;;
12968;SDS011;6549;53.128;8.182;2024-02-28T16:19:37;43.60;;;23.15;;
12968;SDS011;6549;53.128;8.182;2024-02-28T16:22:37;47.40;;;24.35;;
12968;SDS011;6549;53.128;8.182;2024-02-28T16:25:38;51.25;;;23.38;;
12968;SDS011;6549;53.128;8.182;2024-02-28T16:28:39;45.97;;;23.42;;
12968;SDS011;6549;53.128;8.182;2024-02-28T16:31:39;53.88;;;23.48;;
12968;SDS011;6549;53.128;8.182;2024-02-28T16:34:40;50.05;;;24.10;;
12968;SDS011;6549;53.128;8.182;2024-02-28T16:37:40;47.80;;;24.52;;
12968;SDS011;6549;53.128;8.182;2024-02-28T16:40:41;51.70;;;22.92;;
12968;SDS011;6549;53.128;8.182;2024-02-28T16:43:41;55.92;;;24.60;;
12968;SDS011;6549;53.128;8.182;2024-02-28T16:46:45;54.45;;;24.88;;
12968;SDS011;6549;53.128;8.182;2024-02-28T16:49:45;54.17;;;26.10;;
12968;SDS011;6549;53.128;8.182;2024-02-28T16:52:46;55.42;;;25.15;;
12968;SDS011;6549;53.128;8.182;2024-02-28T16:55:46;58.10;;;25.27;;
12968;SDS011;6549;53.128;8.182;2024-02-28T16:58:46;53.42;;;25.60;;
12968;SDS011;6549;53.128;8.182;2024-02-28T17:01:47;57.10;;;25.23;;
12968;SDS011;6549;53.128;8.182;2024-02-28T17:04:48;56.65;;;24.77;;
12968;SDS011;6549;53.128;8.182;2024-02-28T17:07:49;61.35;;;25.92;;
12968;SDS011;6549;53.128;8.182;2024-02-28T17:10:49;64.50;;;26.00;;
12968;SDS011;6549;53.128;8.182;2024-02-28T17:13:49;57.88;;;25.65;;
12968;SDS011;6549;53.128;8.182;2024-02-28T17:16:50;58.88;;;24.90;;
12968;SDS011;6549;53.128;8.182;2024-02-28T17:19:50;66.63;;;26.48;;
12968;SDS011;6549;53.128;8.182;2024-02-28T17:22:52;60.05;;;25.60;;
12968;SDS011;6549;53.128;8.182;2024-02-28T17:25:55;58.60;;;25.30;;
12968;SDS011;6549;53.128;8.182;2024-02-28T17:28:56;60.25;;;26.17;;
12968;SDS011;6549;53.128;8.182;2024-02-28T17:31:56;59.30;;;25.13;;
12968;SDS011;6549;53.128;8.182;2024-02-28T17:34:57;60.33;;;25.92;;
12968;SDS011;6549;53.128;8.182;2024-02-28T17:38:03;56.22;;;25.85;;
12968;SDS011;6549;53.128;8.182;2024-02-28T17:41:04;61.92;;;25.33;;
12968;SDS011;6549;53.128;8.182;2024-02-28T17:44:05;64.55;;;25.85;;
12968;SDS011;6549;53.128;8.182;2024-02-28T17:47:06;58.42;;;24.98;;
12968;SDS011;6549;53.128;8.182;2024-02-28T17:50:06;67.43;;;25.83;;
12968;SDS011;6549;53.128;8.182;2024-02-28T17:53:07;64.70;;;26.17;;
12968;SDS011;6549;53.128;8.182;2024-02-28T17:56:07;63.88;;;26.25;;
12968;SDS011;6549;53.128;8.182;2024-02-28T17:59:07;63.83;;;26.50;;